sensor_id;sensor_type;location;lat;lon;timestamp;P1;durP1;ratioP1;P2;durP2;ratioP2
17915;SDS011;9083;49.156;8.982;2023-11-22T00:02:17;3.90;;;2.30;;
17915;SDS011;9083;49.156;8.982;2023-11-22T00:04:43;2.50;;;2.30;;
17915;SDS011;9083;49.156;8.982;2023-11-22T00:07:09;2.17;;;2.00;;
17915;SDS011;9083;49.156;8.982;2023-11-22T00:09:36;2.40;;;2.20;;
17915;SDS011;9083;49.156;8.982;2023-11-22T00:12:04;2.57;;;2.37;;
17915;SDS011;9083;49.156;8.982;2023-11-22T00:14:31;2.40;;;2.30;;
17915;SDS011;9083;49.156;8.982;2023-11-22T00:16:57;1.90;;;1.80;;
17915;SDS011;9083;49.156;8.982;2023-11-22T00:19:26;2.17;;;2.00;;
17915;SDS011;9083;49.156;8.982;2023-11-22T00:21:53;3.97;;;1.73;;
17915;SDS011;9083;49.156;8.982;2023-11-22T00:24:19;2.23;;;2.13;;
17915;SDS011;9083;49.156;8.982;2023-11-22T00:26:46;3.60;;;2.30;;
17915;SDS011;9083;49.156;8.982;2023-11-22T00:29:13;2.37;;;2.17;;
17915;SDS011;9083;49.156;8.982;2023-11-22T00:31:40;2.47;;;2.27;;
17915;SDS011;9083;49.156;8.982;2023-11-22T00:34:06;2.60;;;2.40;;
17915;SDS011;9083;49.156;8.982;2023-11-22T00:36:32;2.60;;;2.33;;
17915;SDS011;9083;49.156;8.982;2023-11-22T00:38:59;2.70;;;2.50;;
17915;SDS011;9083;49.156;8.982;2023-11-22T00:41:29;2.30;;;2.20;;
17915;SDS011;9083;49.156;8.982;2023-11-22T00:43:55;3.40;;;2.80;;
17915;SDS011;9083;49.156;8.982;2023-11-22T00:46:23;2.90;;;2.63;;
17915;SDS011;9083;49.156;8.982;2023-11-22T00:48:49;2.70;;;2.50;;
17915;SDS011;9083;49.156;8.982;2023-11-22T00:51:16;3.00;;;2.63;;
17915;SDS011;9083;49.156;8.982;2023-11-22T00:53:42;4.00;;;3.10;;
17915;SDS011;9083;49.156;8.982;2023-11-22T00:56:09;2.70;;;2.47;;
17915;SDS011;9083;49.156;8.982;2023-11-22T00:58:35;2.90;;;2.70;;
17915;SDS011;9083;49.156;8.982;2023-11-22T01:01:01;2.70;;;2.50;;
17915;SDS011;9083;49.156;8.982;2023-11-22T01:03:29;3.20;;;2.90;;
17915;SDS011;9083;49.156;8.982;2023-11-22T01:05:55;2.90;;;2.60;;
17915;SDS011;9083;49.156;8.982;2023-11-22T01:08:22;2.47;;;2.30;;
17915;SDS011;9083;49.156;8.982;2023-11-22T01:10:49;2.90;;;2.70;;
17915;SDS011;9083;49.156;8.982;2023-11-22T01:13:15;3.17;;;2.73;;
17915;SDS011;9083;49.156;8.982;2023-11-22T01:15:41;2.93;;;2.60;;
17915;SDS011;9083;49.156;8.982;2023-11-22T01:18:09;3.90;;;2.80;;
17915;SDS011;9083;49.156;8.982;2023-11-22T01:20:39;5.47;;;2.90;;
17915;SDS011;9083;49.156;8.982;2023-11-22T01:23:11;3.00;;;2.80;;
17915;SDS011;9083;49.156;8.982;2023-11-22T01:25:41;3.30;;;3.10;;
17915;SDS011;9083;49.156;8.982;2023-11-22T01:28:13;2.83;;;2.40;;
17915;SDS011;9083;49.156;8.982;2023-11-22T01:30:43;3.70;;;2.77;;
17915;SDS011;9083;49.156;8.982;2023-11-22T01:33:10;4.13;;;3.00;;
17915;SDS011;9083;49.156;8.982;2023-11-22T01:35:38;3.10;;;2.80;;
17915;SDS011;9083;49.156;8.982;2023-11-22T01:38:04;2.60;;;2.40;;
17915;SDS011;9083;49.156;8.982;2023-11-22T01:40:31;3.13;;;2.80;;
17915;SDS011;9083;49.156;8.982;2023-11-22T01:42:57;3.20;;;2.93;;
17915;SDS011;9083;49.156;8.982;2023-11-22T01:45:24;2.97;;;2.43;;
17915;SDS011;9083;49.156;8.982;2023-11-22T01:47:51;3.00;;;2.70;;
17915;SDS011;9083;49.156;8.982;2023-11-22T01:50:17;2.60;;;2.40;;
17915;SDS011;9083;49.156;8.982;2023-11-22T01:52:46;2.60;;;2.40;;
17915;SDS011;9083;49.156;8.982;2023-11-22T01:55:13;3.23;;;2.47;;
17915;SDS011;9083;49.156;8.982;2023-11-22T01:57:41;3.03;;;2.73;;
17915;SDS011;9083;49.156;8.982;2023-11-22T02:00:07;2.53;;;2.20;;
17915;SDS011;9083;49.156;8.982;2023-11-22T02:02:39;2.30;;;2.10;;
17915;SDS011;9083;49.156;8.982;2023-11-22T02:05:05;2.60;;;2.40;;
17915;SDS011;9083;49.156;8.982;2023-11-22T02:07:32;2.83;;;2.40;;
17915;SDS011;9083;49.156;8.982;2023-11-22T02:09:59;2.43;;;2.23;;
17915;SDS011;9083;49.156;8.982;2023-11-22T02:12:28;2.10;;;2.00;;
17915;SDS011;9083;49.156;8.982;2023-11-22T02:14:54;2.40;;;2.30;;
17915;SDS011;9083;49.156;8.982;2023-11-22T02:17:21;2.67;;;1.70;;
17915;SDS011;9083;49.156;8.982;2023-11-22T02:19:47;2.20;;;2.10;;
17915;SDS011;9083;49.156;8.982;2023-11-22T02:22:14;3.07;;;1.80;;
17915;SDS011;9083;49.156;8.982;2023-11-22T02:24:42;3.53;;;1.90;;
17915;SDS011;9083;49.156;8.982;2023-11-22T02:27:08;2.20;;;2.07;;
17915;SDS011;9083;49.156;8.982;2023-11-22T02:29:36;2.90;;;2.00;;
17915;SDS011;9083;49.156;8.982;2023-11-22T02:32:02;1.90;;;1.80;;
17915;SDS011;9083;49.156;8.982;2023-11-22T02:34:29;1.90;;;1.80;;
17915;SDS011;9083;49.156;8.982;2023-11-22T02:36:55;1.80;;;1.70;;
17915;SDS011;9083;49.156;8.982;2023-11-22T02:39:22;2.00;;;1.90;;
17915;SDS011;9083;49.156;8.982;2023-11-22T02:41:52;1.87;;;1.77;;
17915;SDS011;9083;49.156;8.982;2023-11-22T02:44:19;2.10;;;2.00;;
17915;SDS011;9083;49.156;8.982;2023-11-22T02:46:45;2.17;;;1.70;;
17915;SDS011;9083;49.156;8.982;2023-11-22T02:49:11;2.27;;;2.07;;
17915;SDS011;9083;49.156;8.982;2023-11-22T02:51:38;2.23;;;1.93;;
17915;SDS011;9083;49.156;8.982;2023-11-22T02:54:04;2.20;;;1.97;;
17915;SDS011;9083;49.156;8.982;2023-11-22T02:56:30;2.07;;;1.97;;
17915;SDS011;9083;49.156;8.982;2023-11-22T02:58:58;2.30;;;1.77;;
17915;SDS011;9083;49.156;8.982;2023-11-22T03:01:24;2.30;;;2.10;;
17915;SDS011;9083;49.156;8.982;2023-11-22T03:03:51;2.33;;;2.23;;
17915;SDS011;9083;49.156;8.982;2023-11-22T03:06:27;1.90;;;1.80;;
17915;SDS011;9083;49.156;8.982;2023-11-22T03:08:53;2.43;;;2.23;;
17915;SDS011;9083;49.156;8.982;2023-11-22T03:11:20;2.60;;;1.80;;
17915;SDS011;9083;49.156;8.982;2023-11-22T03:13:47;2.43;;;1.90;;
17915;SDS011;9083;49.156;8.982;2023-11-22T03:16:15;2.10;;;2.00;;
17915;SDS011;9083;49.156;8.982;2023-11-22T03:18:42;2.13;;;2.03;;
17915;SDS011;9083;49.156;8.982;2023-11-22T03:21:08;2.20;;;2.10;;
17915;SDS011;9083;49.156;8.982;2023-11-22T03:23:35;2.30;;;2.10;;
17915;SDS011;9083;49.156;8.982;2023-11-22T03:26:02;2.30;;;2.10;;
17915;SDS011;9083;49.156;8.982;2023-11-22T03:31:29;2.17;;;1.73;;
17915;SDS011;9083;49.156;8.982;2023-11-22T03:34:05;2.30;;;2.13;;
17915;SDS011;9083;49.156;8.982;2023-11-22T03:36:52;2.30;;;2.10;;
17915;SDS011;9083;49.156;8.982;2023-11-22T03:39:18;2.70;;;2.50;;
17915;SDS011;9083;49.156;8.982;2023-11-22T03:41:45;2.10;;;2.00;;
17915;SDS011;9083;49.156;8.982;2023-11-22T03:44:16;2.03;;;1.93;;
17915;SDS011;9083;49.156;8.982;2023-11-22T03:46:50;2.83;;;2.33;;
17915;SDS011;9083;49.156;8.982;2023-11-22T03:49:17;2.77;;;2.20;;
17915;SDS011;9083;49.156;8.982;2023-11-22T03:51:43;2.80;;;2.10;;
17915;SDS011;9083;49.156;8.982;2023-11-22T03:54:09;2.10;;;2.00;;
17915;SDS011;9083;49.156;8.982;2023-11-22T03:56:37;2.30;;;2.10;;
17915;SDS011;9083;49.156;8.982;2023-11-22T03:59:04;2.40;;;2.30;;
17915;SDS011;9083;49.156;8.982;2023-11-22T04:01:30;2.23;;;2.10;;
17915;SDS011;9083;49.156;8.982;2023-11-22T04:03:58;2.37;;;2.17;;
17915;SDS011;9083;49.156;8.982;2023-11-22T04:06:24;2.20;;;2.10;;
17915;SDS011;9083;49.156;8.982;2023-11-22T04:08:50;2.00;;;1.90;;
17915;SDS011;9083;49.156;8.982;2023-11-22T04:11:18;2.30;;;2.10;;
17915;SDS011;9083;49.156;8.982;2023-11-22T04:13:44;2.67;;;2.00;;
17915;SDS011;9083;49.156;8.982;2023-11-22T04:16:10;2.40;;;2.20;;
17915;SDS011;9083;49.156;8.982;2023-11-22T04:18:38;2.20;;;2.10;;
17915;SDS011;9083;49.156;8.982;2023-11-22T04:21:06;2.67;;;2.47;;
17915;SDS011;9083;49.156;8.982;2023-11-22T04:23:33;5.43;;;2.37;;
17915;SDS011;9083;49.156;8.982;2023-11-22T04:26:00;2.30;;;2.20;;
17915;SDS011;9083;49.156;8.982;2023-11-22T04:28:27;2.43;;;2.23;;
17915;SDS011;9083;49.156;8.982;2023-11-22T04:30:54;2.23;;;2.10;;
17915;SDS011;9083;49.156;8.982;2023-11-22T04:33:21;4.57;;;2.53;;
17915;SDS011;9083;49.156;8.982;2023-11-22T04:35:48;2.67;;;2.03;;
17915;SDS011;9083;49.156;8.982;2023-11-22T04:38:16;2.70;;;2.50;;
17915;SDS011;9083;49.156;8.982;2023-11-22T04:40:42;3.37;;;3.17;;
17915;SDS011;9083;49.156;8.982;2023-11-22T04:43:08;4.37;;;3.23;;
17915;SDS011;9083;49.156;8.982;2023-11-22T04:45:35;3.27;;;2.97;;
17915;SDS011;9083;49.156;8.982;2023-11-22T04:48:01;2.97;;;2.70;;
17915;SDS011;9083;49.156;8.982;2023-11-22T04:50:28;3.60;;;3.30;;
17915;SDS011;9083;49.156;8.982;2023-11-22T04:52:54;3.13;;;2.93;;
17915;SDS011;9083;49.156;8.982;2023-11-22T04:55:22;2.97;;;2.77;;
17915;SDS011;9083;49.156;8.982;2023-11-22T04:57:49;3.10;;;2.90;;
17915;SDS011;9083;49.156;8.982;2023-11-22T05:00:15;4.80;;;2.80;;
17915;SDS011;9083;49.156;8.982;2023-11-22T05:02:42;2.70;;;2.50;;
17915;SDS011;9083;49.156;8.982;2023-11-22T05:05:09;3.77;;;2.60;;
17915;SDS011;9083;49.156;8.982;2023-11-22T05:07:36;2.70;;;2.50;;
17915;SDS011;9083;49.156;8.982;2023-11-22T05:10:03;3.87;;;3.23;;
17915;SDS011;9083;49.156;8.982;2023-11-22T05:12:31;2.87;;;2.77;;
17915;SDS011;9083;49.156;8.982;2023-11-22T05:14:58;2.80;;;2.60;;
17915;SDS011;9083;49.156;8.982;2023-11-22T05:17:24;2.87;;;2.67;;
17915;SDS011;9083;49.156;8.982;2023-11-22T05:19:51;2.47;;;2.27;;
17915;SDS011;9083;49.156;8.982;2023-11-22T05:22:17;3.27;;;2.80;;
17915;SDS011;9083;49.156;8.982;2023-11-22T05:24:43;2.53;;;2.30;;
17915;SDS011;9083;49.156;8.982;2023-11-22T05:27:10;2.87;;;2.47;;
17915;SDS011;9083;49.156;8.982;2023-11-22T05:29:38;3.43;;;2.57;;
17915;SDS011;9083;49.156;8.982;2023-11-22T05:32:05;3.17;;;2.40;;
17915;SDS011;9083;49.156;8.982;2023-11-22T05:34:31;2.57;;;2.40;;
17915;SDS011;9083;49.156;8.982;2023-11-22T05:36:58;2.40;;;2.20;;
17915;SDS011;9083;49.156;8.982;2023-11-22T05:39:24;2.67;;;2.43;;
17915;SDS011;9083;49.156;8.982;2023-11-22T05:41:50;2.40;;;2.30;;
17915;SDS011;9083;49.156;8.982;2023-11-22T05:44:17;2.00;;;1.90;;
17915;SDS011;9083;49.156;8.982;2023-11-22T05:46:44;2.07;;;1.97;;
17915;SDS011;9083;49.156;8.982;2023-11-22T05:49:11;2.47;;;2.27;;
17915;SDS011;9083;49.156;8.982;2023-11-22T05:51:37;2.20;;;2.10;;
17915;SDS011;9083;49.156;8.982;2023-11-22T05:54:04;3.27;;;2.53;;
17915;SDS011;9083;49.156;8.982;2023-11-22T05:56:30;3.00;;;2.63;;
17915;SDS011;9083;49.156;8.982;2023-11-22T05:58:56;2.23;;;2.03;;
17915;SDS011;9083;49.156;8.982;2023-11-22T06:01:24;2.00;;;1.87;;
17915;SDS011;9083;49.156;8.982;2023-11-22T06:03:52;2.30;;;2.10;;
17915;SDS011;9083;49.156;8.982;2023-11-22T06:06:19;2.67;;;2.47;;
17915;SDS011;9083;49.156;8.982;2023-11-22T06:08:46;3.17;;;1.87;;
17915;SDS011;9083;49.156;8.982;2023-11-22T06:11:13;2.17;;;1.97;;
17915;SDS011;9083;49.156;8.982;2023-11-22T06:13:40;2.80;;;2.60;;
17915;SDS011;9083;49.156;8.982;2023-11-22T06:16:07;3.13;;;2.17;;
17915;SDS011;9083;49.156;8.982;2023-11-22T06:18:34;2.63;;;2.43;;
17915;SDS011;9083;49.156;8.982;2023-11-22T06:21:06;4.83;;;2.70;;
17915;SDS011;9083;49.156;8.982;2023-11-22T06:23:33;3.10;;;2.60;;
17915;SDS011;9083;49.156;8.982;2023-11-22T06:25:59;3.63;;;2.80;;
17915;SDS011;9083;49.156;8.982;2023-11-22T06:28:26;5.13;;;2.93;;
17915;SDS011;9083;49.156;8.982;2023-11-22T06:30:52;5.93;;;3.47;;
17915;SDS011;9083;49.156;8.982;2023-11-22T06:33:18;6.63;;;3.37;;
17915;SDS011;9083;49.156;8.982;2023-11-22T06:35:45;3.17;;;2.50;;
17915;SDS011;9083;49.156;8.982;2023-11-22T06:38:12;3.43;;;2.57;;
17915;SDS011;9083;49.156;8.982;2023-11-22T06:40:39;2.73;;;2.10;;
17915;SDS011;9083;49.156;8.982;2023-11-22T06:43:05;3.33;;;2.73;;
17915;SDS011;9083;49.156;8.982;2023-11-22T06:45:31;3.80;;;2.53;;
17915;SDS011;9083;49.156;8.982;2023-11-22T06:47:58;2.57;;;2.37;;
17915;SDS011;9083;49.156;8.982;2023-11-22T06:50:24;2.97;;;2.73;;
17915;SDS011;9083;49.156;8.982;2023-11-22T06:52:50;2.33;;;2.23;;
17915;SDS011;9083;49.156;8.982;2023-11-22T06:55:19;2.57;;;2.30;;
17915;SDS011;9083;49.156;8.982;2023-11-22T06:57:45;5.87;;;2.63;;
17915;SDS011;9083;49.156;8.982;2023-11-22T07:00:12;5.27;;;2.73;;
17915;SDS011;9083;49.156;8.982;2023-11-22T07:02:38;4.07;;;2.77;;
17915;SDS011;9083;49.156;8.982;2023-11-22T07:05:04;3.70;;;3.17;;
17915;SDS011;9083;49.156;8.982;2023-11-22T07:07:33;5.87;;;3.07;;
17915;SDS011;9083;49.156;8.982;2023-11-22T07:09:59;3.57;;;3.07;;
17915;SDS011;9083;49.156;8.982;2023-11-22T07:12:27;8.30;;;2.87;;
17915;SDS011;9083;49.156;8.982;2023-11-22T07:14:54;3.80;;;3.13;;
17915;SDS011;9083;49.156;8.982;2023-11-22T07:17:20;2.97;;;2.77;;
17915;SDS011;9083;49.156;8.982;2023-11-22T07:19:47;4.67;;;3.23;;
17915;SDS011;9083;49.156;8.982;2023-11-22T07:22:14;5.27;;;3.10;;
17915;SDS011;9083;49.156;8.982;2023-11-22T07:24:42;2.73;;;2.50;;
17915;SDS011;9083;49.156;8.982;2023-11-22T07:27:09;3.73;;;2.90;;
17915;SDS011;9083;49.156;8.982;2023-11-22T07:29:39;3.20;;;2.90;;
17915;SDS011;9083;49.156;8.982;2023-11-22T07:32:06;9.80;;;3.30;;
17915;SDS011;9083;49.156;8.982;2023-11-22T07:34:32;3.83;;;3.43;;
17915;SDS011;9083;49.156;8.982;2023-11-22T07:36:58;4.73;;;3.10;;
17915;SDS011;9083;49.156;8.982;2023-11-22T07:39:25;3.90;;;3.53;;
17915;SDS011;9083;49.156;8.982;2023-11-22T07:41:52;3.77;;;3.17;;
17915;SDS011;9083;49.156;8.982;2023-11-22T07:44:19;4.87;;;3.50;;
17915;SDS011;9083;49.156;8.982;2023-11-22T07:46:47;11.03;;;3.13;;
17915;SDS011;9083;49.156;8.982;2023-11-22T07:49:14;3.50;;;2.87;;
17915;SDS011;9083;49.156;8.982;2023-11-22T07:51:40;6.73;;;3.83;;
17915;SDS011;9083;49.156;8.982;2023-11-22T07:54:07;3.97;;;3.20;;
17915;SDS011;9083;49.156;8.982;2023-11-22T07:56:34;5.67;;;3.40;;
17915;SDS011;9083;49.156;8.982;2023-11-22T07:59:00;4.73;;;3.23;;
17915;SDS011;9083;49.156;8.982;2023-11-22T08:01:27;4.90;;;3.30;;
17915;SDS011;9083;49.156;8.982;2023-11-22T08:03:58;4.37;;;3.40;;
17915;SDS011;9083;49.156;8.982;2023-11-22T08:06:24;5.00;;;3.40;;
17915;SDS011;9083;49.156;8.982;2023-11-22T08:08:52;3.43;;;3.13;;
17915;SDS011;9083;49.156;8.982;2023-11-22T08:11:18;6.00;;;3.67;;
17915;SDS011;9083;49.156;8.982;2023-11-22T08:13:45;9.27;;;3.37;;
17915;SDS011;9083;49.156;8.982;2023-11-22T08:16:13;7.00;;;3.83;;
17915;SDS011;9083;49.156;8.982;2023-11-22T08:18:39;3.77;;;3.40;;
17915;SDS011;9083;49.156;8.982;2023-11-22T08:21:09;15.20;;;4.40;;
17915;SDS011;9083;49.156;8.982;2023-11-22T08:23:35;4.80;;;3.70;;
17915;SDS011;9083;49.156;8.982;2023-11-22T08:26:01;20.07;;;3.83;;
17915;SDS011;9083;49.156;8.982;2023-11-22T08:28:29;12.20;;;3.20;;
17915;SDS011;9083;49.156;8.982;2023-11-22T08:30:55;7.13;;;3.27;;
17915;SDS011;9083;49.156;8.982;2023-11-22T08:33:22;5.37;;;3.30;;
17915;SDS011;9083;49.156;8.982;2023-11-22T08:35:48;9.53;;;3.87;;
17915;SDS011;9083;49.156;8.982;2023-11-22T08:38:18;4.60;;;3.50;;
17915;SDS011;9083;49.156;8.982;2023-11-22T08:40:45;7.50;;;3.30;;
17915;SDS011;9083;49.156;8.982;2023-11-22T08:43:12;6.43;;;4.23;;
17915;SDS011;9083;49.156;8.982;2023-11-22T08:45:38;4.33;;;3.57;;
17915;SDS011;9083;49.156;8.982;2023-11-22T08:48:04;4.03;;;2.77;;
17915;SDS011;9083;49.156;8.982;2023-11-22T08:50:31;8.40;;;4.13;;
17915;SDS011;9083;49.156;8.982;2023-11-22T08:52:57;6.70;;;4.00;;
17915;SDS011;9083;49.156;8.982;2023-11-22T08:55:25;11.13;;;3.80;;
17915;SDS011;9083;49.156;8.982;2023-11-22T08:57:51;5.17;;;3.87;;
17915;SDS011;9083;49.156;8.982;2023-11-22T09:00:17;9.90;;;4.30;;
17915;SDS011;9083;49.156;8.982;2023-11-22T09:02:47;6.10;;;4.30;;
17915;SDS011;9083;49.156;8.982;2023-11-22T09:05:14;12.33;;;4.67;;
17915;SDS011;9083;49.156;8.982;2023-11-22T09:07:41;9.47;;;3.83;;
17915;SDS011;9083;49.156;8.982;2023-11-22T09:10:09;11.80;;;3.53;;
17915;SDS011;9083;49.156;8.982;2023-11-22T09:12:39;4.30;;;3.07;;
17915;SDS011;9083;49.156;8.982;2023-11-22T09:15:06;6.50;;;3.40;;
17915;SDS011;9083;49.156;8.982;2023-11-22T09:17:35;46.07;;;7.53;;
17915;SDS011;9083;49.156;8.982;2023-11-22T09:20:02;6.23;;;4.70;;
17915;SDS011;9083;49.156;8.982;2023-11-22T09:22:29;5.80;;;3.87;;
17915;SDS011;9083;49.156;8.982;2023-11-22T09:24:55;24.60;;;4.60;;
17915;SDS011;9083;49.156;8.982;2023-11-22T09:27:22;4.53;;;3.67;;
17915;SDS011;9083;49.156;8.982;2023-11-22T09:29:49;6.43;;;4.23;;
17915;SDS011;9083;49.156;8.982;2023-11-22T09:32:16;4.77;;;3.80;;
17915;SDS011;9083;49.156;8.982;2023-11-22T09:34:42;5.57;;;4.17;;
17915;SDS011;9083;49.156;8.982;2023-11-22T09:37:11;5.23;;;4.13;;
17915;SDS011;9083;49.156;8.982;2023-11-22T09:39:40;3.93;;;3.53;;
17915;SDS011;9083;49.156;8.982;2023-11-22T09:42:06;10.43;;;4.10;;
17915;SDS011;9083;49.156;8.982;2023-11-22T09:44:32;11.30;;;4.10;;
17915;SDS011;9083;49.156;8.982;2023-11-22T09:47:02;7.43;;;4.50;;
17915;SDS011;9083;49.156;8.982;2023-11-22T09:49:29;12.90;;;4.50;;
17915;SDS011;9083;49.156;8.982;2023-11-22T09:51:56;5.73;;;3.77;;
17915;SDS011;9083;49.156;8.982;2023-11-22T09:54:26;4.00;;;3.63;;
17915;SDS011;9083;49.156;8.982;2023-11-22T09:56:56;10.37;;;4.57;;
17915;SDS011;9083;49.156;8.982;2023-11-22T09:59:22;8.17;;;4.37;;
17915;SDS011;9083;49.156;8.982;2023-11-22T10:01:49;20.37;;;5.97;;
17915;SDS011;9083;49.156;8.982;2023-11-22T10:04:18;10.43;;;4.43;;
17915;SDS011;9083;49.156;8.982;2023-11-22T10:06:45;8.90;;;4.90;;
17915;SDS011;9083;49.156;8.982;2023-11-22T10:09:12;14.73;;;4.13;;
17915;SDS011;9083;49.156;8.982;2023-11-22T10:11:39;6.87;;;3.97;;
17915;SDS011;9083;49.156;8.982;2023-11-22T10:14:08;8.93;;;4.10;;
17915;SDS011;9083;49.156;8.982;2023-11-22T10:16:34;7.17;;;4.60;;
17915;SDS011;9083;49.156;8.982;2023-11-22T10:19:01;13.37;;;5.30;;
17915;SDS011;9083;49.156;8.982;2023-11-22T10:21:29;8.77;;;4.73;;
17915;SDS011;9083;49.156;8.982;2023-11-22T10:23:57;6.33;;;3.83;;
17915;SDS011;9083;49.156;8.982;2023-11-22T10:26:23;6.77;;;4.50;;
17915;SDS011;9083;49.156;8.982;2023-11-22T10:28:50;5.33;;;3.67;;
17915;SDS011;9083;49.156;8.982;2023-11-22T10:31:16;12.50;;;4.70;;
17915;SDS011;9083;49.156;8.982;2023-11-22T10:33:43;5.00;;;3.57;;
17915;SDS011;9083;49.156;8.982;2023-11-22T10:36:09;13.17;;;4.43;;
17915;SDS011;9083;49.156;8.982;2023-11-22T10:38:38;8.23;;;4.77;;
17915;SDS011;9083;49.156;8.982;2023-11-22T10:41:05;8.43;;;4.20;;
17915;SDS011;9083;49.156;8.982;2023-11-22T10:43:32;13.67;;;4.90;;
17915;SDS011;9083;49.156;8.982;2023-11-22T10:46:01;7.00;;;4.17;;
17915;SDS011;9083;49.156;8.982;2023-11-22T10:48:27;6.27;;;3.97;;
17915;SDS011;9083;49.156;8.982;2023-11-22T10:50:54;9.57;;;4.40;;
17915;SDS011;9083;49.156;8.982;2023-11-22T10:53:22;11.97;;;4.90;;
17915;SDS011;9083;49.156;8.982;2023-11-22T10:55:53;10.67;;;4.23;;
17915;SDS011;9083;49.156;8.982;2023-11-22T10:58:22;7.23;;;4.23;;
17915;SDS011;9083;49.156;8.982;2023-11-22T11:00:50;7.60;;;4.33;;
17915;SDS011;9083;49.156;8.982;2023-11-22T11:03:17;6.90;;;4.03;;
17915;SDS011;9083;49.156;8.982;2023-11-22T11:05:47;10.53;;;4.17;;
17915;SDS011;9083;49.156;8.982;2023-11-22T11:08:15;9.10;;;4.13;;
17915;SDS011;9083;49.156;8.982;2023-11-22T11:10:45;6.03;;;4.00;;
17915;SDS011;9083;49.156;8.982;2023-11-22T11:13:13;7.57;;;4.03;;
17915;SDS011;9083;49.156;8.982;2023-11-22T11:15:39;8.00;;;4.40;;
17915;SDS011;9083;49.156;8.982;2023-11-22T11:18:06;6.50;;;4.00;;
17915;SDS011;9083;49.156;8.982;2023-11-22T11:20:43;7.07;;;4.60;;
17915;SDS011;9083;49.156;8.982;2023-11-22T11:23:11;9.00;;;5.13;;
17915;SDS011;9083;49.156;8.982;2023-11-22T11:25:39;9.93;;;5.00;;
17915;SDS011;9083;49.156;8.982;2023-11-22T11:28:06;11.80;;;5.17;;
17915;SDS011;9083;49.156;8.982;2023-11-22T11:30:44;6.83;;;4.10;;
17915;SDS011;9083;49.156;8.982;2023-11-22T11:33:11;5.43;;;4.03;;
17915;SDS011;9083;49.156;8.982;2023-11-22T11:35:37;5.93;;;4.17;;
17915;SDS011;9083;49.156;8.982;2023-11-22T11:38:04;6.07;;;3.73;;
17915;SDS011;9083;49.156;8.982;2023-11-22T11:40:34;10.00;;;5.50;;
17915;SDS011;9083;49.156;8.982;2023-11-22T11:43:00;8.00;;;4.97;;
17915;SDS011;9083;49.156;8.982;2023-11-22T11:45:27;8.00;;;4.07;;
17915;SDS011;9083;49.156;8.982;2023-11-22T11:47:56;5.70;;;4.53;;
17915;SDS011;9083;49.156;8.982;2023-11-22T11:50:22;4.97;;;4.20;;
17915;SDS011;9083;49.156;8.982;2023-11-22T11:52:48;5.77;;;4.07;;
17915;SDS011;9083;49.156;8.982;2023-11-22T11:55:15;9.87;;;4.50;;
17915;SDS011;9083;49.156;8.982;2023-11-22T11:57:41;4.93;;;4.07;;
17915;SDS011;9083;49.156;8.982;2023-11-22T12:00:08;6.77;;;3.77;;
17915;SDS011;9083;49.156;8.982;2023-11-22T12:02:39;5.90;;;3.83;;
17915;SDS011;9083;49.156;8.982;2023-11-22T12:05:07;4.30;;;3.63;;
17915;SDS011;9083;49.156;8.982;2023-11-22T12:07:34;14.83;;;4.00;;
17915;SDS011;9083;49.156;8.982;2023-11-22T12:10:00;5.87;;;4.27;;
17915;SDS011;9083;49.156;8.982;2023-11-22T12:12:26;4.87;;;3.43;;
17915;SDS011;9083;49.156;8.982;2023-11-22T12:14:53;4.97;;;4.03;;
17915;SDS011;9083;49.156;8.982;2023-11-22T12:17:20;4.80;;;3.97;;
17915;SDS011;9083;49.156;8.982;2023-11-22T12:19:47;4.50;;;3.47;;
17915;SDS011;9083;49.156;8.982;2023-11-22T12:22:15;9.00;;;4.67;;
17915;SDS011;9083;49.156;8.982;2023-11-22T12:24:42;14.53;;;5.60;;
17915;SDS011;9083;49.156;8.982;2023-11-22T12:27:09;8.70;;;4.33;;
17915;SDS011;9083;49.156;8.982;2023-11-22T12:29:35;16.90;;;4.63;;
17915;SDS011;9083;49.156;8.982;2023-11-22T12:32:02;14.63;;;5.17;;
17915;SDS011;9083;49.156;8.982;2023-11-22T12:34:28;8.23;;;4.00;;
17915;SDS011;9083;49.156;8.982;2023-11-22T12:36:55;9.17;;;4.53;;
17915;SDS011;9083;49.156;8.982;2023-11-22T12:39:23;14.10;;;4.73;;
17915;SDS011;9083;49.156;8.982;2023-11-22T12:41:50;5.17;;;3.83;;
17915;SDS011;9083;49.156;8.982;2023-11-22T12:44:17;5.20;;;3.90;;
17915;SDS011;9083;49.156;8.982;2023-11-22T12:46:48;7.17;;;3.50;;
17915;SDS011;9083;49.156;8.982;2023-11-22T12:49:20;5.70;;;4.30;;
17915;SDS011;9083;49.156;8.982;2023-11-22T12:51:47;14.80;;;4.33;;
17915;SDS011;9083;49.156;8.982;2023-11-22T12:54:14;11.70;;;4.53;;
17915;SDS011;9083;49.156;8.982;2023-11-22T12:56:41;4.43;;;4.03;;
17915;SDS011;9083;49.156;8.982;2023-11-22T12:59:08;6.20;;;4.20;;
17915;SDS011;9083;49.156;8.982;2023-11-22T13:01:35;6.03;;;4.37;;
17915;SDS011;9083;49.156;8.982;2023-11-22T13:04:01;35.97;;;6.00;;
17915;SDS011;9083;49.156;8.982;2023-11-22T13:06:28;5.10;;;3.73;;
17915;SDS011;9083;49.156;8.982;2023-11-22T13:08:55;5.80;;;3.77;;
17915;SDS011;9083;49.156;8.982;2023-11-22T13:11:21;8.83;;;4.17;;
17915;SDS011;9083;49.156;8.982;2023-11-22T13:13:51;9.90;;;4.40;;
17915;SDS011;9083;49.156;8.982;2023-11-22T13:16:17;5.80;;;4.20;;
17915;SDS011;9083;49.156;8.982;2023-11-22T13:18:43;5.53;;;3.60;;
17915;SDS011;9083;49.156;8.982;2023-11-22T13:21:10;7.23;;;4.33;;
17915;SDS011;9083;49.156;8.982;2023-11-22T13:23:36;4.73;;;3.37;;
17915;SDS011;9083;49.156;8.982;2023-11-22T13:26:03;19.33;;;5.60;;
17915;SDS011;9083;49.156;8.982;2023-11-22T13:28:30;19.93;;;5.20;;
17915;SDS011;9083;49.156;8.982;2023-11-22T13:30:58;10.60;;;4.17;;
17915;SDS011;9083;49.156;8.982;2023-11-22T13:33:25;5.47;;;3.87;;
17915;SDS011;9083;49.156;8.982;2023-11-22T13:35:53;12.77;;;4.53;;
17915;SDS011;9083;49.156;8.982;2023-11-22T13:38:19;9.07;;;4.37;;
17915;SDS011;9083;49.156;8.982;2023-11-22T13:40:45;8.53;;;4.43;;
17915;SDS011;9083;49.156;8.982;2023-11-22T13:43:12;6.60;;;3.70;;
17915;SDS011;9083;49.156;8.982;2023-11-22T13:45:38;13.93;;;4.57;;
17915;SDS011;9083;49.156;8.982;2023-11-22T13:48:07;8.97;;;5.23;;
17915;SDS011;9083;49.156;8.982;2023-11-22T13:50:34;5.17;;;3.90;;
17915;SDS011;9083;49.156;8.982;2023-11-22T13:53:01;12.13;;;4.77;;
17915;SDS011;9083;49.156;8.982;2023-11-22T13:55:29;6.23;;;4.27;;
17915;SDS011;9083;49.156;8.982;2023-11-22T13:57:55;9.20;;;4.63;;
17915;SDS011;9083;49.156;8.982;2023-11-22T14:00:22;18.10;;;4.87;;
17915;SDS011;9083;49.156;8.982;2023-11-22T14:02:52;17.97;;;5.63;;
17915;SDS011;9083;49.156;8.982;2023-11-22T14:05:22;28.63;;;6.10;;
17915;SDS011;9083;49.156;8.982;2023-11-22T14:07:48;9.73;;;4.33;;
17915;SDS011;9083;49.156;8.982;2023-11-22T14:10:16;7.03;;;4.30;;
17915;SDS011;9083;49.156;8.982;2023-11-22T14:12:43;9.57;;;4.90;;
17915;SDS011;9083;49.156;8.982;2023-11-22T14:15:09;8.20;;;4.73;;
17915;SDS011;9083;49.156;8.982;2023-11-22T14:17:36;4.37;;;3.60;;
17915;SDS011;9083;49.156;8.982;2023-11-22T14:20:04;16.77;;;5.03;;
17915;SDS011;9083;49.156;8.982;2023-11-22T14:22:34;9.97;;;4.27;;
17915;SDS011;9083;49.156;8.982;2023-11-22T14:25:00;7.20;;;3.70;;
17915;SDS011;9083;49.156;8.982;2023-11-22T14:27:27;14.33;;;4.43;;
17915;SDS011;9083;49.156;8.982;2023-11-22T14:29:55;19.40;;;5.30;;
17915;SDS011;9083;49.156;8.982;2023-11-22T14:32:21;8.63;;;5.00;;
17915;SDS011;9083;49.156;8.982;2023-11-22T14:34:47;6.53;;;4.50;;
17915;SDS011;9083;49.156;8.982;2023-11-22T14:37:14;5.03;;;3.63;;
17915;SDS011;9083;49.156;8.982;2023-11-22T14:39:42;4.33;;;3.60;;
17915;SDS011;9083;49.156;8.982;2023-11-22T14:42:09;5.40;;;4.10;;
17915;SDS011;9083;49.156;8.982;2023-11-22T14:44:36;6.23;;;3.97;;
17915;SDS011;9083;49.156;8.982;2023-11-22T14:47:03;7.87;;;4.83;;
17915;SDS011;9083;49.156;8.982;2023-11-22T14:49:40;6.40;;;4.03;;
17915;SDS011;9083;49.156;8.982;2023-11-22T14:52:06;9.23;;;4.10;;
17915;SDS011;9083;49.156;8.982;2023-11-22T14:54:35;12.27;;;4.37;;
17915;SDS011;9083;49.156;8.982;2023-11-22T14:57:03;13.90;;;4.93;;
17915;SDS011;9083;49.156;8.982;2023-11-22T14:59:31;7.67;;;4.77;;
17915;SDS011;9083;49.156;8.982;2023-11-22T15:01:57;4.60;;;3.87;;
17915;SDS011;9083;49.156;8.982;2023-11-22T15:04:25;5.77;;;4.17;;